Time;durP1;ratioP1;P1;durP2;ratioP2;P2;SDS_P1;SDS_P2;PMS_P1;PMS_P2;Temp;Humidity;BMP_temperature;BMP_pressure;BME280_temperature;BME280_humidity;BME280_pressure;Samples;Min_cycle;Max_cycle;Signal;HPM_P1;HPM_P2
2021/06/25 00:00:32;;;;;;;16.25;12.38;;;;;;;16.68;91.77;98788.13;5064957;28;20084;-63
2021/06/25 00:02:58;;;;;;;21.08;14.52;;;;;;;16.64;92.06;98797.16;5064949;28;20023;-63
2021/06/25 00:05:23;;;;;;;17.38;12.35;;;;;;;16.62;91.94;98793.72;5065150;28;20214;-63
2021/06/25 00:07:49;;;;;;;18.25;13.23;;;;;;;16.61;91.96;98797.28;5064808;28;20017;-63
2021/06/25 00:10:14;;;;;;;21.45;13.80;;;;;;;16.64;91.89;98791.84;5064807;28;20035;-63
2021/06/25 00:12:40;;;;;;;20.23;13.73;;;;;;;16.64;92.14;98786.53;5064501;28;20059;-63
2021/06/25 00:15:07;;;;;;;17.45;14.02;;;;;;;16.65;91.90;98788.25;5064678;28;20104;-63
2021/06/25 00:17:33;;;;;;;22.40;15.40;;;;;;;16.60;92.05;98779.63;5064659;28;20024;-63
2021/06/25 00:19:58;;;;;;;17.92;14.50;;;;;;;16.65;91.91;98784.75;5064867;28;20017;-63
2021/06/25 00:22:24;;;;;;;21.02;14.65;;;;;;;16.64;92.19;98781.22;5064590;28;20016;-63
2021/06/25 00:24:49;;;;;;;19.95;14.20;;;;;;;16.65;91.88;98780.28;5064526;28;20017;-63
2021/06/25 00:27:15;;;;;;;20.42;15.07;;;;;;;16.62;92.01;98783.09;5064547;28;20020;-63
2021/06/25 00:29:40;;;;;;;19.85;15.20;;;;;;;16.64;92.02;98780.34;5064730;28;20024;-63
2021/06/25 00:32:06;;;;;;;22.67;16.02;;;;;;;16.60;92.01;98779.63;5064467;28;20020;-63
2021/06/25 00:34:32;;;;;;;25.05;16.88;;;;;;;16.56;92.18;98778.03;5064565;28;20029;-63
2021/06/25 00:36:58;;;;;;;22.50;15.73;;;;;;;16.61;92.30;98775.19;5064331;28;20082;-63
2021/06/25 00:39:23;;;;;;;25.23;16.50;;;;;;;16.59;92.48;98777.91;5064560;28;20024;-63
2021/06/25 00:41:48;;;;;;;23.92;16.60;;;;;;;16.60;92.26;98769.00;5064286;28;20047;-63
2021/06/25 00:44:20;;;;;;;27.17;16.38;;;;;;;16.61;92.44;98770.69;5064234;28;20216;-63
2021/06/25 00:46:46;;;;;;;;;;;;;;;16.66;92.20;98774.06;5064852;28;20021;-63
2021/06/25 00:49:12;;;;;;;26.85;17.63;;;;;;;16.68;92.11;98782.81;5064180;28;20136;-63
2021/06/25 00:51:39;;;;;;;25.77;16.85;;;;;;;16.65;91.99;98771.47;5064100;28;20017;-63
2021/06/25 00:54:07;;;;;;;34.65;20.38;;;;;;;16.64;92.23;98775.03;5064028;28;20027;-63
2021/06/25 00:56:32;;;;;;;32.15;20.48;;;;;;;16.60;92.06;98769.00;5064009;28;20291;-63
2021/06/25 00:58:59;;;;;;;33.70;20.58;;;;;;;16.57;92.40;98774.44;5063976;28;20062;-63
2021/06/25 01:01:24;;;;;;;33.88;21.02;;;;;;;16.60;92.28;98776.09;5063946;28;20031;-63
2021/06/25 01:03:50;;;;;;;32.13;20.75;;;;;;;16.60;92.12;98774.31;5064117;28;20017;-63
2021/06/25 01:06:15;;;;;;;32.15;20.38;;;;;;;16.58;92.11;98770.81;5063901;28;20021;-63
2021/06/25 01:08:42;;;;;;;25.02;16.30;;;;;;;16.60;91.76;98769.00;5063690;28;20017;-63
2021/06/25 01:11:08;;;;;;;27.08;16.58;;;;;;;16.57;91.71;98769.13;5063802;28;20062;-63
2021/06/25 01:13:36;;;;;;;28.73;14.50;;;;;;;16.54;91.83;98769.22;5063480;28;20072;-63
2021/06/25 01:16:01;;;;;;;21.15;13.73;;;;;;;16.50;91.90;98767.63;5063859;28;20021;-63
2021/06/25 01:18:27;;;;;;;18.85;10.98;;;;;;;16.50;92.09;98762.31;5064047;28;20075;-63
2021/06/25 01:20:56;;;;;;;15.85;11.32;;;;;;;16.48;91.77;98758.84;5063800;28;20024;-63
2021/06/25 01:23:21;;;;;;;15.70;10.93;;;;;;;16.46;92.12;98755.38;5063741;28;20017;-63
2021/06/25 01:25:46;;;;;;;12.32;9.60;;;;;;;16.47;91.84;98766.88;5063718;28;20080;-63
2021/06/25 01:28:12;;;;;;;12.90;9.73;;;;;;;16.46;91.92;98765.16;5063726;28;20017;-63
2021/06/25 01:30:43;;;;;;;12.52;9.43;;;;;;;16.46;91.95;98760.69;5063703;28;20189;-63
2021/06/25 01:33:13;;;;;;;12.60;10.20;;;;;;;16.39;91.87;98768.97;5063649;28;20025;-63
2021/06/25 01:35:39;;;;;;;13.05;10.35;;;;;;;16.36;92.18;98758.47;5063531;28;20351;-63
2021/06/25 01:38:06;;;;;;;15.18;11.80;;;;;;;16.37;91.92;98758.41;5063623;28;20045;-63
2021/06/25 01:40:32;;;;;;;12.77;9.65;;;;;;;16.37;92.19;98755.75;5063566;28;20039;-63
2021/06/25 01:43:00;;;;;;;16.52;10.75;;;;;;;16.31;92.28;98765.75;5063646;28;20021;-63
2021/06/25 01:45:28;;;;;;;11.63;10.23;;;;;;;16.21;92.31;98762.59;5063749;28;20029;-63
2021/06/25 01:47:54;;;;;;;16.80;12.18;;;;;;;16.20;92.56;98763.50;5063767;28;20208;-63
2021/06/25 01:50:22;;;;;;;15.95;10.70;;;;;;;16.24;92.81;98757.16;5063482;28;20024;-63
2021/06/25 01:52:56;;;;;;;14.75;10.07;;;;;;;16.24;92.64;98759.81;5063378;28;20088;-63
2021/06/25 01:55:22;;;;;;;17.48;10.88;;;;;;;16.24;92.66;98761.59;5063442;28;20021;-63
2021/06/25 01:57:48;;;;;;;14.40;11.48;;;;;;;16.25;92.69;98756.22;5063336;28;20025;-63
2021/06/25 02:00:14;;;;;;;17.42;11.45;;;;;;;16.28;92.99;98761.44;5063397;28;20032;-63
2021/06/25 02:02:40;;;;;;;16.63;12.27;;;;;;;16.28;93.24;98755.25;5063327;28;20040;-63
2021/06/25 02:05:08;;;;;;;14.32;11.57;;;;;;;16.31;93.19;98756.00;5063590;28;20024;-63
2021/06/25 02:07:34;;;;;;;15.88;11.48;;;;;;;16.30;92.95;98754.25;5063374;28;20321;-63
2021/06/25 02:09:59;;;;;;;16.98;12.52;;;;;;;16.35;92.93;98752.28;5063303;28;20059;-63
2021/06/25 02:12:25;;;;;;;15.20;11.80;;;;;;;16.31;92.97;98750.69;5063055;28;20071;-63
2021/06/25 02:14:52;;;;;;;19.83;12.27;;;;;;;16.33;92.80;98754.13;5063284;28;20024;-63
2021/06/25 02:17:19;;;;;;;16.45;11.90;;;;;;;16.33;92.77;98759.44;5063256;28;20022;-63
2021/06/25 02:19:44;;;;;;;15.27;12.48;;;;;;;16.32;92.93;98763.03;5063262;28;20031;-63
2021/06/25 02:22:10;;;;;;;21.33;14.00;;;;;;;16.30;92.97;98770.19;5066715;28;20088;-63
2021/06/25 02:24:36;;;;;;;24.90;14.77;;;;;;;16.31;92.93;98761.31;5066869;28;20036;-63
2021/06/25 02:27:02;;;;;;;19.05;12.60;;;;;;;16.33;92.96;98763.91;5066774;28;20021;-63
2021/06/25 02:29:28;;;;;;;21.08;14.43;;;;;;;16.31;93.01;98761.31;5066877;28;20193;-63
2021/06/25 02:31:53;;;;;;;18.27;13.55;;;;;;;16.35;92.78;98762.03;5066688;28;20025;-63
2021/06/25 02:34:18;;;;;;;17.35;13.10;;;;;;;16.34;92.69;98766.50;5066542;28;20047;-63
2021/06/25 02:36:44;;;;;;;24.20;15.07;;;;;;;16.31;92.70;98756.00;5066595;28;20056;-63
2021/06/25 02:39:10;;;;;;;23.15;15.90;;;;;;;16.28;93.06;98765.88;5066574;28;20332;-63
2021/06/25 02:41:35;;;;;;;23.05;15.48;;;;;;;16.30;92.98;98764.88;5066554;28;20021;-63
2021/06/25 02:44:01;;;;;;;24.15;15.82;;;;;;;16.25;92.86;98769.50;5066450;28;20017;-63
2021/06/25 02:46:27;;;;;;;24.35;16.38;;;;;;;16.29;92.90;98767.56;5066731;28;20062;-63
2021/06/25 02:48:52;;;;;;;22.02;15.77;;;;;;;16.27;92.71;98766.78;5066412;28;20021;-63
2021/06/25 02:51:17;;;;;;;25.98;17.05;;;;;;;16.26;92.75;98757.94;5065358;28;20021;-63
2021/06/25 02:53:43;;;;;;;30.98;18.30;;;;;;;16.28;92.66;98765.88;5066389;28;20124;-63
2021/06/25 02:56:08;;;;;;;23.60;17.02;;;;;;;16.30;92.63;98764.88;5066268;28;20379;-63
2021/06/25 02:58:34;;;;;;;30.55;18.48;;;;;;;16.24;92.56;98765.13;5066116;28;20130;-63
2021/06/25 03:00:59;;;;;;;26.30;18.70;;;;;;;16.23;92.74;98768.69;5066170;28;20048;-63
2021/06/25 03:03:25;;;;;;;30.33;18.67;;;;;;;16.19;92.72;98764.44;5066102;28;20023;-63
2021/06/25 03:05:52;;;;;;;27.52;19.25;;;;;;;16.25;92.67;98761.53;5066044;28;20070;-63
2021/06/25 03:08:18;;;;;;;30.08;19.45;;;;;;;16.23;92.74;98757.22;5066227;28;20131;-63
2021/06/25 03:10:46;;;;;;;27.52;19.30;;;;;;;16.23;92.65;98766.03;5065943;28;20017;-63
2021/06/25 03:13:13;;;;;;;29.38;19.52;;;;;;;16.19;92.47;98764.44;5065738;28;20174;-63
2021/06/25 03:15:39;;;;;;;27.48;20.88;;;;;;;16.19;92.54;98767.09;5065911;28;20017;-63
2021/06/25 03:18:04;;;;;;;30.00;21.63;;;;;;;16.29;92.07;98759.63;5065854;28;20028;-63
2021/06/25 03:20:30;;;;;;;32.58;20.15;;;;;;;16.22;92.18;98766.97;5065780;28;20024;-63
2021/06/25 03:22:55;;;;;;;29.33;20.95;;;;;;;16.19;92.37;98763.56;5065743;28;20023;-63
2021/06/25 03:25:21;;;;;;;34.75;24.25;;;;;;;16.14;92.24;98760.25;5065691;28;20338;-63
2021/06/25 03:27:46;;;;;;;35.53;24.35;;;;;;;16.17;92.21;98763.63;5065611;28;20020;-63
2021/06/25 03:30:12;;;;;;;30.45;21.98;;;;;;;16.16;92.62;98767.22;5065626;28;20096;-63
2021/06/25 03:32:38;;;;;;;36.45;23.05;;;;;;;16.14;92.69;98761.09;5065449;28;20021;-63
2021/06/25 03:35:05;;;;;;;35.20;24.30;;;;;;;16.16;92.61;98767.22;5065541;28;20032;-63
2021/06/25 03:37:30;;;;;;;33.78;23.50;;;;;;;16.17;92.56;98760.97;5065484;28;20027;-63
2021/06/25 03:39:56;;;;;;;37.92;24.40;;;;;;;16.15;92.47;98760.19;5065385;28;20324;-63
2021/06/25 03:42:21;;;;;;;34.88;24.45;;;;;;;16.14;92.46;98757.59;5065332;28;20021;-63
2021/06/25 03:44:47;;;;;;;39.47;27.42;;;;;;;16.13;92.25;98761.16;5065563;28;20084;-63
2021/06/25 03:47:12;;;;;;;36.45;25.88;;;;;;;16.09;92.39;98759.56;5065277;28;20028;-63
2021/06/25 03:49:38;;;;;;;37.20;25.58;;;;;;;16.10;92.37;98756.84;5065239;28;20027;-63
2021/06/25 03:52:04;;;;;;;35.53;25.27;;;;;;;16.11;92.41;98758.56;5065161;28;20025;-63
2021/06/25 03:54:29;;;;;;;35.65;24.77;;;;;;;16.10;92.83;98756.84;5065198;28;20024;-63
2021/06/25 03:56:54;;;;;;;36.75;26.60;;;;;;;16.13;92.51;98766.47;5065019;28;20212;-63
2021/06/25 03:59:20;;;;;;;33.03;24.83;;;;;;;16.11;92.60;98763.03;5065050;28;20335;-63
2021/06/25 04:01:46;;;;;;;37.50;25.60;;;;;;;16.14;92.75;98765.56;5064996;28;20032;-63
2021/06/25 04:04:11;;;;;;;35.15;23.83;;;;;;;16.15;92.68;98765.50;5064972;28;20017;-63
2021/06/25 04:06:36;;;;;;;33.70;25.38;;;;;;;16.16;92.43;98758.38;5064889;28;20048;-63
2021/06/25 04:09:03;;;;;;;34.83;24.20;;;;;;;16.16;92.25;98761.91;5064849;28;20067;-63
2021/06/25 04:11:29;;;;;;;35.72;23.40;;;;;;;16.14;92.50;98758.44;5064865;28;20286;-63
2021/06/25 04:13:54;;;;;;;36.40;25.10;;;;;;;16.09;92.56;98757.78;5064585;28;20033;-63
2021/06/25 04:16:20;;;;;;;33.88;22.80;;;;;;;16.13;92.63;98764.69;5064700;28;20334;-63
2021/06/25 04:18:45;;;;;;;35.00;25.08;;;;;;;16.12;92.60;98759.44;5064703;28;20299;-63
2021/06/25 04:21:11;;;;;;;40.95;25.50;;;;;;;16.13;92.46;98756.72;5064604;28;20088;-63
2021/06/25 04:23:36;;;;;;;45.55;26.90;;;;;;;16.15;92.28;98765.50;5064626;28;20013;-63
2021/06/25 04:26:03;;;;;;;40.30;29.42;;;;;;;16.15;92.34;98764.63;5064524;28;20067;-63
2021/06/25 04:28:29;;;;;;;45.22;28.40;;;;;;;16.12;92.28;98760.31;5064613;28;20193;-63
2021/06/25 04:30:54;;;;;;;43.70;29.33;;;;;;;16.14;92.75;98763.75;5064378;28;20027;-63
2021/06/25 04:33:20;;;;;;;40.13;27.83;;;;;;;16.17;92.48;98763.63;5064327;28;20092;-63
2021/06/25 04:35:48;;;;;;;42.13;29.25;;;;;;;16.18;92.41;98762.72;5064370;28;20021;-63
2021/06/25 04:38:14;;;;;;;47.08;30.42;;;;;;;16.19;92.10;98767.09;5064264;28;20021;-63
2021/06/25 04:40:43;;;;;;;41.50;28.90;;;;;;;16.23;91.91;98768.69;5064297;28;20031;-63
2021/06/25 04:43:10;;;;;;;46.50;29.55;;;;;;;16.23;91.94;98774.00;5064058;28;20073;-63
2021/06/25 04:45:37;;;;;;;45.65;30.95;;;;;;;16.19;92.29;98769.75;5064204;28;20017;-63
2021/06/25 04:48:07;;;;;;;45.33;31.23;;;;;;;16.20;92.25;98768.81;5064176;28;20025;-63
2021/06/25 04:50:33;;;;;;;41.13;29.67;;;;;;;16.22;91.93;98774.94;5064204;28;20197;-63
2021/06/25 04:52:59;;;;;;;47.72;31.63;;;;;;;16.24;91.81;98772.22;5064039;28;20025;-63
2021/06/25 04:55:25;;;;;;;47.10;32.90;;;;;;;16.23;92.10;98774.00;5064045;28;20181;-63
2021/06/25 04:57:52;;;;;;;43.05;29.60;;;;;;;16.30;91.93;98775.50;5063968;28;20021;-63
2021/06/25 05:00:19;;;;;;;39.33;30.75;;;;;;;16.28;91.57;98776.47;5064013;28;20059;-63
2021/06/25 05:02:45;;;;;;;42.58;30.73;;;;;;;16.29;91.67;98780.88;5063980;28;20017;-63
2021/06/25 05:05:11;;;;;;;45.10;30.67;;;;;;;16.30;91.97;98782.63;5063916;28;20032;-63
2021/06/25 05:07:37;;;;;;;44.47;30.23;;;;;;;16.32;91.86;98773.66;5063939;28;20025;-63
2021/06/25 05:10:03;;;;;;;45.58;30.38;;;;;;;16.35;91.75;98777.97;5063864;28;20032;-63
2021/06/25 05:12:28;;;;;;;38.65;28.90;;;;;;;16.33;91.64;98778.03;5063613;28;20201;-63
2021/06/25 05:14:54;;;;;;;44.03;29.30;;;;;;;16.36;91.40;98779.72;5063850;28;20100;-63
2021/06/25 05:17:19;;;;;;;49.95;30.40;;;;;;;16.36;91.20;98779.72;5063820;28;20414;-63
2021/06/25 05:19:45;;;;;;;41.00;30.20;;;;;;;16.35;90.86;98788.59;5063785;28;20036;-63
2021/06/25 05:22:10;;;;;;;42.83;30.30;;;;;;;16.36;91.30;98780.56;5063755;28;20021;-63
2021/06/25 05:24:35;;;;;;;41.28;28.85;;;;;;;16.34;90.95;98781.56;5063757;28;20024;-63
2021/06/25 05:27:02;;;;;;;36.97;27.65;;;;;;;16.26;90.76;98789.81;5063987;28;20044;-63
2021/06/25 05:29:28;;;;;;;38.13;27.77;;;;;;;16.28;90.66;98788.00;5063711;28;20031;-63
2021/06/25 05:31:53;;;;;;;39.42;28.95;;;;;;;16.33;89.79;98785.16;5063681;28;20025;-63
2021/06/25 05:34:19;;;;;;;40.78;27.92;;;;;;;16.26;89.68;98789.81;5063522;28;20024;-63
2021/06/25 05:36:44;;;;;;;36.58;27.65;;;;;;;16.21;89.75;98786.50;5063650;28;20057;-63
2021/06/25 05:39:10;;;;;;;36.03;28.40;;;;;;;16.20;90.01;98787.41;5063608;28;20027;-63
2021/06/25 05:41:35;;;;;;;38.78;29.15;;;;;;;16.16;90.25;98783.16;5063600;28;20041;-63
2021/06/25 05:44:01;;;;;;;40.30;29.95;;;;;;;16.25;89.86;98784.56;5063559;28;20043;-63
2021/06/25 05:46:26;;;;;;;39.00;29.23;;;;;;;16.29;89.51;98789.72;5063555;28;20092;-63
2021/06/25 05:48:51;;;;;;;40.22;29.17;;;;;;;16.31;90.05;98798.50;5063525;28;20312;-63
2021/06/25 05:51:17;;;;;;;34.13;25.95;;;;;;;16.34;90.00;98803.69;5063498;28;20021;-63
2021/06/25 05:53:42;;;;;;;39.63;27.05;;;;;;;16.37;90.04;98803.56;5063403;28;20316;-63
2021/06/25 05:56:08;;;;;;;37.15;26.92;;;;;;;16.41;89.97;98807.81;5065526;28;20092;-63
2021/06/25 05:58:34;;;;;;;41.63;29.17;;;;;;;16.38;90.16;98807.94;5067248;28;20265;-63
2021/06/25 06:01:00;;;;;;;34.38;26.77;;;;;;;16.39;89.73;98807.00;5067321;28;20092;-63
2021/06/25 06:03:25;;;;;;;36.58;28.15;;;;;;;16.39;90.33;98812.31;5067304;28;20020;-63
2021/06/25 06:05:50;;;;;;;38.65;28.83;;;;;;;16.42;90.47;98812.19;5067219;28;20096;-63
2021/06/25 06:08:16;;;;;;;37.38;28.60;;;;;;;16.47;90.36;98815.59;5067178;28;20071;-63
2021/06/25 06:10:41;;;;;;;42.45;29.45;;;;;;;16.53;89.78;98810.03;5067115;28;20020;-63
2021/06/25 06:13:07;;;;;;;41.45;29.17;;;;;;;16.51;90.03;98811.88;5066868;28;20078;-63
2021/06/25 06:15:33;;;;;;;36.42;29.25;;;;;;;16.54;89.97;98811.75;5067128;28;20040;-64
2021/06/25 06:18:01;;;;;;;37.30;29.33;;;;;;;16.60;90.02;98810.63;5066966;28;20016;-64
2021/06/25 06:20:28;;;;;;;40.40;30.35;;;;;;;16.63;90.05;98816.69;5066912;28;20093;-64
2021/06/25 06:31:27;;;;;;;51.95;40.20;;;;;;;16.65;89.87;98824.59;5066758;28;20027;-64
2021/06/25 06:36:32;;;;;;;51.47;39.95;;;;;;;16.61;89.63;98818.53;5066962;28;20021;-64
2021/06/25 06:39:00;;;;;;;54.95;40.45;;;;;;;16.71;90.21;98819.06;5066535;28;20028;-64
2021/06/25 06:41:27;;;;;;;50.10;40.53;;;;;;;16.70;89.34;98818.16;5066492;28;20059;-64
2021/06/25 06:43:53;;;;;;;55.13;42.10;;;;;;;16.59;90.18;98825.72;5066496;28;20025;-64
2021/06/25 06:46:19;;;;;;;59.50;44.33;;;;;;;16.53;89.85;98819.78;5066436;28;20028;-64
2021/06/25 06:48:47;;;;;;;51.30;39.30;;;;;;;16.56;89.37;98828.50;5066388;28;20025;-64
2021/06/25 06:51:14;;;;;;;55.42;41.75;;;;;;;16.58;89.23;98823.13;5066599;28;20067;-64
2021/06/25 06:53:43;;;;;;;52.90;41.90;;;;;;;16.53;89.23;98828.63;5066227;28;20029;-64
2021/06/25 06:56:14;;;;;;;56.35;45.03;;;;;;;16.45;90.27;98830.72;5066234;28;20021;-64
2021/06/25 06:58:41;;;;;;;58.70;44.50;;;;;;;16.52;89.78;98829.53;5066201;28;20070;-64
2021/06/25 07:01:07;;;;;;;64.75;46.25;;;;;;;16.44;90.16;98830.78;5066149;28;20264;-64
2021/06/25 07:03:33;;;;;;;62.67;45.35;;;;;;;16.50;90.35;98836.72;5066103;28;20021;-64
2021/06/25 07:05:58;;;;;;;61.17;46.20;;;;;;;16.51;90.09;98838.44;5065725;28;20032;-64
2021/06/25 07:08:24;;;;;;;63.40;46.92;;;;;;;16.47;90.63;98836.84;5066015;28;20154;-64
2021/06/25 07:10:49;;;;;;;62.33;44.95;;;;;;;16.49;90.57;98834.97;5065975;28;20070;-63
2021/06/25 07:13:15;;;;;;;65.38;47.53;;;;;;;16.54;90.43;98838.31;5065729;28;20056;-63
2021/06/25 07:15:41;;;;;;;63.75;47.13;;;;;;;16.57;90.42;98843.50;5065875;28;20025;-63
2021/06/25 07:18:06;;;;;;;66.57;48.30;;;;;;;16.57;90.67;98843.50;5065889;28;20031;-63
2021/06/25 07:20:32;;;;;;;66.82;47.15;;;;;;;16.61;90.26;98844.28;5065844;28;20028;-63
2021/06/25 07:22:59;;;;;;;65.68;46.80;;;;;;;16.66;90.07;98847.59;5065746;28;20028;-63
2021/06/25 07:25:24;;;;;;;70.43;48.10;;;;;;;16.70;89.83;98855.38;5065694;28;20269;-63
2021/06/25 07:27:49;;;;;;;66.55;46.10;;;;;;;16.79;89.52;98855.03;5065670;28;20025;-63
2021/06/25 07:30:16;;;;;;;59.08;44.65;;;;;;;16.83;89.32;98856.63;5065613;28;20041;-63
2021/06/25 07:32:41;;;;;;;60.70;45.40;;;;;;;16.81;88.78;98857.63;5065454;28;20032;-63
2021/06/25 07:35:08;;;;;;;61.40;44.63;;;;;;;16.88;89.47;98859.97;5065562;28;20088;-63
2021/06/25 07:37:34;;;;;;;56.65;43.63;;;;;;;16.81;88.90;98847.81;5065509;28;20067;-63
2021/06/25 07:40:00;;;;;;;59.35;44.45;;;;;;;16.87;89.34;98854.72;5065448;28;20247;-63
2021/06/25 07:42:25;;;;;;;54.05;44.33;;;;;;;16.79;89.07;98860.34;5065348;28;20055;-63
2021/06/25 07:44:51;;;;;;;59.50;47.13;;;;;;;16.81;88.95;98858.47;5065319;28;20028;-63
2021/06/25 07:47:17;;;;;;;56.45;45.83;;;;;;;16.73;89.30;98865.00;5065239;28;20031;-63
2021/06/25 07:49:43;;;;;;;56.80;46.00;;;;;;;16.67;89.84;98854.63;5065254;28;20033;-63
2021/06/25 07:52:08;;;;;;;65.72;49.40;;;;;;;16.70;90.39;98860.69;5065195;28;20027;-63
2021/06/25 07:54:34;;;;;;;63.70;48.13;;;;;;;16.62;90.42;98857.50;5065124;28;20033;-63
2021/06/25 07:56:59;;;;;;;55.50;44.05;;;;;;;16.63;89.41;98864.53;5065061;28;20123;-63
2021/06/25 07:59:25;;;;;;;55.75;43.35;;;;;;;16.62;88.76;98868.13;5065087;28;20324;-63
2021/06/25 08:01:50;;;;;;;58.45;46.30;;;;;;;16.59;89.21;98857.63;5065019;28;20340;-63
2021/06/25 08:04:16;;;;;;;59.42;46.15;;;;;;;16.49;89.78;98858.88;5064993;28;20044;-63
2021/06/25 08:06:41;;;;;;;62.55;46.70;;;;;;;16.49;89.81;98864.19;5064943;28;20032;-63
2021/06/25 08:09:07;;;;;;;58.80;46.28;;;;;;;16.53;89.67;98857.84;5064897;28;20025;-63
2021/06/25 08:11:33;;;;;;;61.70;48.72;;;;;;;16.56;90.68;98862.19;5064905;28;20032;-63
2021/06/25 08:13:59;;;;;;;64.03;48.25;;;;;;;16.63;90.50;98864.53;5064567;28;20041;-63
2021/06/25 08:16:24;;;;;;;68.30;50.63;;;;;;;16.71;90.62;98857.09;5064757;28;20171;-63
2021/06/25 08:18:57;;;;;;;66.93;49.47;;;;;;;16.73;89.58;98854.38;5064012;28;20083;-63
2021/06/25 08:21:27;;;;;;;62.80;46.83;;;;;;;16.80;89.25;98856.75;5064988;28;20304;-63
2021/06/25 08:23:52;;;;;;;61.72;47.65;;;;;;;16.88;88.96;98854.66;5064583;28;20013;-63
2021/06/25 08:26:18;;;;;;;67.50;49.60;;;;;;;16.91;89.70;98859.84;5064555;28;20066;-63
2021/06/25 08:28:44;;;;;;;57.03;46.60;;;;;;;16.88;88.78;98854.66;5064523;28;20021;-63
2021/06/25 08:31:09;;;;;;;58.67;45.33;;;;;;;17.00;89.37;98854.13;5064485;28;20063;-63
2021/06/25 08:33:34;;;;;;;57.55;46.47;;;;;;;17.00;89.04;98859.44;5064359;28;20013;-63
2021/06/25 08:36:00;;;;;;;64.55;47.58;;;;;;;17.02;88.62;98856.72;5064407;28;20024;-63
2021/06/25 08:38:25;;;;;;;62.00;47.13;;;;;;;16.95;88.77;98853.47;5064388;28;20244;-63
2021/06/25 08:40:51;;;;;;;67.25;49.33;;;;;;;17.00;89.42;98859.44;5064334;28;20020;-63
2021/06/25 08:43:16;;;;;;;64.10;47.55;;;;;;;17.06;89.76;98853.03;5064254;28;20216;-63
2021/06/25 08:45:43;;;;;;;62.55;48.72;;;;;;;17.10;88.68;98852.84;5064231;28;20040;-63
2021/06/25 08:48:09;;;;;;;58.33;45.95;;;;;;;17.08;88.51;98860.00;5064209;28;20040;-63
2021/06/25 08:50:39;;;;;;;67.63;48.47;;;;;;;17.01;88.63;98850.56;5064137;28;20017;-63
2021/06/25 08:53:05;;;;;;;73.57;48.55;;;;;;;17.16;88.40;98855.25;5064012;28;20025;-63
2021/06/25 08:55:31;;;;;;;66.57;49.20;;;;;;;17.12;87.93;98850.97;5064082;28;20084;-63
2021/06/25 08:57:56;;;;;;;63.42;49.25;;;;;;;17.22;88.94;98849.63;5063991;28;20056;-63
2021/06/25 09:00:22;;;;;;;61.17;48.85;;;;;;;17.18;86.85;98853.34;5064029;28;20216;-63
2021/06/25 09:02:48;;;;;;;66.65;49.85;;;;;;;17.34;87.47;98858.03;5063944;28;20028;-63
2021/06/25 09:05:25;;;;;;;68.13;50.70;;;;;;;17.48;87.82;98855.66;5063935;28;20032;-64
2021/06/25 09:07:51;;;;;;;67.60;49.90;;;;;;;17.48;87.55;98855.66;5063899;28;20021;-64
2021/06/25 09:10:30;;;;;;;73.15;50.47;;;;;;;17.53;87.44;98851.03;5063888;28;20048;-64
2021/06/25 09:13:07;;;;;;;71.22;51.17;;;;;;;17.49;87.28;98854.75;5063654;28;20267;-64
2021/06/25 09:15:34;;;;;;;64.25;47.95;;;;;;;17.55;85.24;98857.13;5063819;28;20021;-64
2021/06/25 09:18:01;;;;;;;62.85;49.35;;;;;;;17.61;86.14;98856.84;5064089;28;20313;-64
2021/06/25 09:20:47;;;;;;;72.47;51.50;;;;;;;17.75;86.48;98855.31;5063686;28;20035;-64
2021/06/25 09:23:32;;;;;;;63.90;48.20;;;;;;;17.88;85.96;98850.31;5063761;28;20021;-64
2021/06/25 09:26:09;;;;;;;70.13;50.88;;;;;;;18.03;85.35;98855.81;5063719;28;20025;-64
2021/06/25 09:28:36;;;;;;;67.20;48.35;;;;;;;18.14;85.37;98858.00;5064008;28;20308;-63
2021/06/25 09:31:11;;;;;;;60.50;46.22;;;;;;;18.10;83.78;98857.25;5067395;28;20316;-63
2021/06/25 09:34:03;;;;;;;59.47;47.42;;;;;;;18.21;83.67;98864.75;5067769;28;20316;-63
2021/06/25 09:36:31;;;;;;;60.13;47.40;;;;;;;18.38;83.55;98856.91;5067802;28;20028;-64
2021/06/25 09:39:00;;;;;;;65.72;48.78;;;;;;;18.38;83.75;98854.22;5067671;28;20025;-64
2021/06/25 09:41:26;;;;;;;64.55;48.22;;;;;;;18.58;84.13;98854.16;5067679;28;20092;-63
2021/06/25 09:44:00;;;;;;;57.45;43.75;;;;;;;18.51;82.27;98852.72;5067608;28;20013;-63
2021/06/25 09:46:30;;;;;;;54.35;42.72;;;;;;;18.56;82.14;98851.53;5067663;28;20024;-63
2021/06/25 09:48:59;;;;;;;55.00;45.13;;;;;;;18.64;82.06;98853.84;5067618;28;20088;-64
2021/06/25 09:51:25;;;;;;;54.58;43.13;;;;;;;18.71;82.24;98855.28;5067776;28;20335;-64
2021/06/25 09:54:12;;;;;;;52.50;41.58;;;;;;;18.83;80.58;98854.69;5067375;28;20021;-64
2021/06/25 09:56:43;;;;;;;47.33;39.40;;;;;;;19.08;78.03;98852.53;5067815;28;20322;-64
2021/06/25 10:02:31;;;;;;;52.05;38.88;;;;;;;19.46;77.90;98854.16;5066449;28;20369;-64
2021/06/25 10:05:10;;;;;;;48.30;38.95;;;;;;;19.68;78.69;98852.09;5067281;28;20043;-64
2021/06/25 10:07:36;;;;;;;45.47;37.75;;;;;;;19.91;77.34;98841.06;5067240;28;20021;-64
2021/06/25 10:10:10;;;;;;;48.55;38.60;;;;;;;20.00;76.22;98843.22;5067136;28;20028;-64
2021/06/25 10:12:38;;;;;;;47.22;37.67;;;;;;;20.09;76.38;98845.41;5067070;28;20045;-64
2021/06/25 10:15:04;;;;;;;43.53;35.67;;;;;;;20.11;76.58;98840.84;5067352;28;20034;-64
2021/06/25 10:17:30;;;;;;;39.47;31.48;;;;;;;20.24;74.70;98836.59;5066997;28;20034;-64
2021/06/25 10:20:06;;;;;;;42.40;32.80;;;;;;;19.85;75.77;98843.19;5066978;28;20028;-64
2021/06/25 10:22:34;;;;;;;37.03;31.15;;;;;;;19.96;76.45;98847.00;5067260;28;20028;-64
2021/06/25 10:25:01;;;;;;;42.97;33.35;;;;;;;19.82;75.71;98841.56;5066883;28;20048;-64
2021/06/25 10:27:27;;;;;;;43.28;34.13;;;;;;;19.75;75.86;98842.84;5066862;28;20024;-64
2021/06/25 10:29:56;;;;;;;39.45;34.88;;;;;;;19.73;77.94;98850.03;5066823;28;20021;-64
2021/06/25 10:32:21;;;;;;;40.72;33.05;;;;;;;19.88;77.59;98843.91;5066774;28;20028;-64
2021/06/25 10:34:46;;;;;;;39.88;34.80;;;;;;;19.75;77.68;98847.28;5066638;28;20088;-64
2021/06/25 10:37:20;;;;;;;42.70;33.83;;;;;;;19.58;77.24;98845.50;5066632;28;20025;-64
2021/06/25 10:39:46;;;;;;;36.83;32.83;;;;;;;19.44;76.09;98848.03;5066652;28;20087;-64
2021/06/25 10:42:12;;;;;;;40.60;33.63;;;;;;;19.43;77.42;98846.31;5065900;28;20324;-64
2021/06/25 10:44:44;;;;;;;39.88;31.42;;;;;;;19.55;75.64;98845.66;5066510;28;20025;-64
2021/06/25 10:47:22;;;;;;;37.25;32.58;;;;;;;19.57;77.14;98849.13;5066727;28;20028;-64
2021/06/25 10:49:59;;;;;;;32.50;28.33;;;;;;;19.67;75.03;98841.47;5066460;28;20025;-64
2021/06/25 10:52:38;;;;;;;42.22;33.58;;;;;;;19.64;77.43;98845.19;5066406;28;20076;-64
2021/06/25 10:55:18;;;;;;;38.05;31.83;;;;;;;19.71;77.28;98846.59;5066413;28;20033;-64
2021/06/25 10:57:49;;;;;;;35.15;28.58;;;;;;;19.69;74.89;98843.16;5066253;28;20009;-64
2021/06/25 11:00:28;;;;;;;43.38;34.17;;;;;;;19.56;74.14;98844.75;5066269;28;20025;-64
2021/06/25 11:02:53;;;;;;;42.85;34.42;;;;;;;19.50;75.88;98846.84;5066186;28;20024;-64
2021/06/25 11:05:25;;;;;;;39.42;32.83;;;;;;;19.38;76.71;98848.34;5066114;28;20324;-64
2021/06/25 11:07:51;;;;;;;42.97;34.55;;;;;;;19.41;77.56;98842.84;5066099;28;20029;-64
2021/06/25 11:10:25;;;;;;;38.38;30.65;;;;;;;19.42;75.38;98844.56;5066042;28;20036;-64
2021/06/25 11:13:13;;;;;;;44.22;36.42;;;;;;;19.40;79.13;98835.78;5065717;28;20037;-64
2021/06/25 11:15:44;;;;;;;42.70;33.83;;;;;;;19.55;77.09;98840.31;5065892;28;20035;-64
2021/06/25 11:18:12;;;;;;;40.40;35.22;;;;;;;19.61;75.95;98845.34;5066119;28;20418;-64
2021/06/25 11:20:54;;;;;;;33.05;29.00;;;;;;;19.68;75.97;98836.06;5065845;28;20029;-64
2021/06/25 11:23:26;;;;;;;38.47;32.75;;;;;;;19.68;76.38;98845.91;5065860;28;20020;-64
2021/06/25 11:25:55;;;;;;;37.33;31.98;;;;;;;19.71;75.34;98849.25;5066023;28;20335;-64
2021/06/25 11:28:41;;;;;;;36.35;31.95;;;;;;;19.88;73.98;98841.22;5065709;28;20028;-64
2021/06/25 11:31:19;;;;;;;43.15;33.20;;;;;;;19.81;73.72;98847.84;5065892;28;20021;-64